x

Cape Cod - 24 Nm East Of Provincetown, Ma (44018) Wave Buoy

12:50am - Thu 11th Feb 2016 All times are EST. -5 hours from GMT.

  • Sig Wave height 5.2ft
  • Swell Direction
  • Peak Period 11s
  • Average Period 5s
  • Wind
    22mph, 27mph gusts
  • Sea Temp 44°f
  • Air Temp 37°f
  • Sea Pressure 1002.9mb
  • Cape Cod - 24 Nm East Of Provincetown, Ma
  • Cape Cod - 24 Nm East Of Provincetown, Ma

More Historic Weather Station data

Upgrade to MSW Pro to gain access to the past 30 days of data for over 8000 Wavebouys and Weather Stations around the globe.

Join Pro

Comparision Forecast

View Surf forecast
   
Thu 02/11 12:50am 5ft 11s 5s 22 27 mph 1002.9mb 44f 37f
Wed 02/10 11:50pm 5.5ft 11s 5s 22 27 mph 1002.9mb 44f 38f
10:50pm 5ft 11s 6s 22 27 mph 1002.5mb 44f 38f
9:50pm 4.5ft 11s 6s 20 25 mph 1002.6mb 44f 38f
8:50pm 3.5ft 10s 5s 18 22 mph 1002.5mb 44f 37f
7:50pm 4ft 11s 6s 20 25 mph 1002.6mb 45f 37f
6:50pm 3.5ft 12s 7s 16 20 mph 1002.8mb 45f 37f
5:50pm 4.5ft 12s 8s 13 16 mph 1002.5mb 45f 37f
4:50pm 4.5ft 13s 9s 9 11 mph 1001.8mb 45f 36f
3:50pm 4.5ft 11s 9s 7 9 mph 1001.3mb 45f 35f
2:50pm 5ft 11s 9s 7 9 mph 1000.7mb 45f 35f
1:50pm 5ft 10s 9s 4 9 mph 1000.9mb 45f 35f
12:50pm 5.5ft 11s 9s 4 7 mph 1001.2mb 45f 34f
11:50am 5.5ft 11s 9s 2 4 mph 1001.5mb 45f 34f
10:50am 5.5ft 10s 9s 4 9 mph 1002.9mb 44f 34f
9:50am 5ft 11s 8s 7 9 mph 1003.2mb 44f 34f
8:50am 4.5ft 13s 8s 4 9 mph 1003.5mb 44f 34f
7:50am 5ft 11s 8s 4 9 mph 1003.7mb 44f 33f
6:50am 4.5ft 12s 8s 7 9 mph 1003.5mb 44f 33f
5:50am 6ft 11s 8s 7 9 mph 1003.1mb 44f 33f
4:50am 6ft 13s 8s 2 7 mph 1003mb 44f 33f
3:50am 6ft 13s 8s 4 7 mph 1002.5mb 44f 32f
2:50am 6.5ft 12s 8s 9 13 mph 1002.6mb 44f 32f
1:50am 7ft 12s 8s 7 13 mph 1002.5mb 44f 32f
12:50am 7.5ft 13s 8s 7 13 mph 1002.5mb 44f 32f
Tue 02/09 11:50pm 7.5ft 13s 8s 11 18 mph 1002.3mb 44f 32f
10:50pm 7.5ft 13s 8s 11 16 mph 1002.4mb 44f 32f
9:50pm 8ft 13s 8s 11 18 mph 1002.7mb 44f 31f
8:50pm 7.5ft 13s 8s 11 16 mph 1002.6mb 44f 32f
7:50pm 8ft 12s 8s 13 18 mph 1002.2mb 44f 32f
6:50pm 9ft 13s 8s 11 18 mph 1002.4mb 44f 32f
5:50pm 10ft 13s 8s 13 18 mph 1002.1mb 44f 32f
4:50pm 11ft 14s 8s 16 20 mph 1001.3mb 44f 33f
3:50pm 12.5ft 14s 9s 16 18 mph 1001.1mb 44f 33f
2:50pm 13.5ft 13s 9s 20 25 mph 1000.3mb 44f 33f
1:50pm 13.5ft 14s 9s 16 20 mph 1000.4mb 44f 33f
12:50pm 15ft 13s 9s 11 18 mph 1001.1mb 44f 33f
11:50am 15ft 13s 9s 9 13 mph 1002.7mb 44f 33f
10:50am 17.5ft 13s 10s 11 13 mph 1003.4mb 44f 33f
9:50am 16ft 14s 10s 7 11 mph 1004.6mb 44f 33f
8:50am 17ft 15s 10s 7 13 mph 1004.5mb 44f 32f
7:50am 15ft 14s 9s 9 13 mph 1005.1mb 44f 32f
6:50am 15ft 14s 9s 20 25 mph 1002.4mb 44f 32f
5:50am 17.5ft 14s 10s 13 18 mph 1005.2mb 44f 32f
4:50am 17.5ft 14s 9s 13 18 mph 1005.4mb 44f 32f
3:50am 19ft 12s 9s 13 18 mph 1005.5mb 45f 31f
2:50am 19.5ft 12s 9s 16 22 mph 1005.9mb 45f 31f
1:50am 18.5ft 13s 9s 20 25 mph 1005.5mb 45f 31f
12:50am 21ft 14s 9s 22 27 mph 1005.3mb 45f 31f
Mon 02/08 11:50pm 21.5ft 14s 10s 27 31 mph 1005.5mb 45f 31f
10:50pm 22ft 13s 9s 29 36 mph 1005.4mb 45f 31f
9:50pm 22.5ft 12s 9s 29 36 mph 1004.6mb 45f 31f
8:50pm 23ft 12s 9s 31 38 mph 1004.2mb 45f 32f
7:50pm 23.5ft 12s 9s 34 43 mph 1003.6mb 45f 33f
6:50pm 24.5ft 11s 9s 34 40 mph 1003.3mb 45f 33f
5:50pm 22.5ft 11s 9s 36 45 mph 1001.7mb 45f 33f
4:50pm 22.5ft 12s 9s 38 47 mph 1000.4mb 45f 34f
3:50pm 21.5ft 11s 9s 40 49 mph 999.7mb 45f 33f
2:50pm 23ft 11s 9s 43 54 mph 999.3mb 45f 33f
1:50pm 21.5ft 11s 8s 40 51 mph 1000.4mb 45f 32f
12:50pm 20ft 10s 8s 40 51 mph 1002.1mb 45f 32f
11:50am 17.5ft 10s 8s 38 47 mph 1003.6mb 45f 31f
10:50am 17.5ft 10s 8s 36 45 mph 1006mb 45f 31f
9:50am 18.5ft 10s 8s 36 45 mph 1005.7mb 45f 32f
8:50am 18.5ft 10s 8s 36 43 mph 1006.1mb 45f 33f
7:50am 17.5ft 10s 8s 36 47 mph 1006.2mb 45f 35f
6:50am 16.5ft 10s 8s 38 47 mph 1007.7mb 45f 36f
5:50am 16ft 9s 7s 36 45 mph 1008.4mb 45f 36f
4:50am 14.5ft 8s 7s 40 49 mph 1007.9mb 45f 37f
3:50am 11.5ft 8s 6s 38 47 mph 1009.8mb 45f 37f
2:50am 10ft 7s 6s 38 47 mph 1011.2mb 45f 38f
1:50am 9ft 7s 6s 36 43 mph 1012.1mb 45f 39f
12:50am 7ft 6s 5s 34 38 mph 1013.9mb 45f 41f
Sun 02/07 11:50pm 7ft 6s 5s 29 34 mph 1016.2mb 45f 41f
10:50pm 5ft 5s 5s 29 34 mph 1016.1mb 45f 42f
9:50pm 4ft 4s 4s 25 29 mph 1017.4mb 45f 42f
8:50pm 2.5ft 10s 4s 22 27 mph 1018.6mb 45f 42f
7:50pm 2ft 10s 4s 18 20 mph 1019.3mb 45f 42f
6:50pm 1.6ft 11s 4s 16 18 mph 1019.9mb 45f 42f
5:50pm 1.6ft 10s 6s 11 16 mph 1020.5mb 45f 42f
4:50pm 1.6ft 11s 6s 9 11 mph 1020mb 45f 41f
3:50pm 1.6ft 10s 5s 7 9 mph 1020.3mb 45f 41f
2:50pm 2ft 11s 5s 4 7 mph 1021mb 45f 41f
1:50pm 2.5ft 11s 5s 7 9 mph 1022.1mb 45f 41f
12:50pm 2.5ft 11s 5s 2 4 mph 1021.5mb 45f 41f
11:50am 2.5ft 11s 5s 7 11 mph 1020.5mb 45f 40f
10:50am 2.5ft 5s 4s 9 11 mph 1021.4mb 45f 39f
9:50am 3ft 5s 4s 13 16 mph 1022.1mb 45f 39f
8:50am 3.5ft 5s 4s 16 18 mph 1021.6mb 45f 39f
7:50am 3ft 5s 4s 16 20 mph 1022.1mb 45f 39f
6:50am 3ft 5s 4s 16 20 mph 1021.6mb 45f 39f